createdAt,value
2022-11-27T00:05:04.607Z,98616.16
2022-11-27T00:10:09.398Z,98612.91
2022-11-27T00:15:17.100Z,98605.78
2022-11-27T00:20:25.064Z,98610.47
2022-11-27T00:25:32.460Z,98604.56
2022-11-27T00:30:35.950Z,98603.09
2022-11-27T00:35:41.212Z,98590.00
2022-11-27T00:40:44.738Z,98589.34
2022-11-27T00:45:50.218Z,98586.88
2022-11-27T00:51:00.123Z,98599.88
2022-11-27T00:56:04.584Z,98587.13
2022-11-27T01:01:08.998Z,98588.06
2022-11-27T01:06:14.747Z,98588.66
2022-11-27T01:11:20.324Z,98566.16
2022-11-27T01:16:25.827Z,98573.16
2022-11-27T01:21:32.932Z,98570.63
2022-11-27T01:26:36.473Z,98572.00
2022-11-27T01:31:40.440Z,98563.22
2022-11-27T01:36:46.271Z,98566.81
2022-11-27T01:41:50.100Z,98561.38
2022-11-27T01:46:56.447Z,98553.94
2022-11-27T01:52:04.610Z,98551.38
2022-11-27T01:57:13.245Z,98544.81
2022-11-27T02:02:17.027Z,98541.88
2022-11-27T02:07:22.440Z,98536.03
2022-11-27T02:12:29.139Z,98526.84
2022-11-27T02:17:40.488Z,98525.50
2022-11-27T02:23:01.103Z,98520.78
2022-11-27T02:28:22.596Z,98519.13
2022-11-27T02:33:29.191Z,98507.03
2022-11-27T02:38:36.549Z,98504.94
2022-11-27T02:43:44.195Z,98503.09
2022-11-27T02:48:51.743Z,98499.03
2022-11-27T02:54:00.322Z,98506.78
2022-11-27T02:59:07.617Z,98510.28
2022-11-27T03:04:15.813Z,98501.63
2022-11-27T03:09:23.534Z,98502.38
2022-11-27T03:14:27.579Z,98485.25
2022-11-27T03:19:40.457Z,98475.66
2022-11-27T03:24:44.099Z,98477.41
2022-11-27T03:29:51.084Z,98473.16
2022-11-27T03:34:56.488Z,98475.91
2022-11-27T03:40:00.033Z,98476.66
2022-11-27T03:45:11.747Z,98459.63
2022-11-27T03:50:28.697Z,98461.28
2022-11-27T03:55:43.397Z,98467.41
2022-11-27T04:00:51.869Z,98462.34
2022-11-27T04:05:57.119Z,98463.25
2022-11-27T04:11:00.694Z,98463.94
2022-11-27T04:16:05.047Z,98462.41
2022-11-27T04:21:10.119Z,98462.50
2022-11-27T04:26:13.766Z,98457.09
2022-11-27T04:31:17.432Z,98464.13
2022-11-27T04:36:22.507Z,98467.22
2022-11-27T04:41:26.062Z,98472.78
2022-11-27T04:46:29.679Z,98464.91
2022-11-27T04:51:34.860Z,98467.63
2022-11-27T04:56:38.283Z,98466.88
2022-11-27T05:01:41.790Z,98475.72
2022-11-27T05:06:46.669Z,98474.97
2022-11-27T05:11:50.151Z,98466.16
2022-11-27T05:16:56.028Z,98474.75
2022-11-27T05:22:00.959Z,98463.44
2022-11-27T05:27:04.579Z,98467.19
2022-11-27T05:32:08.457Z,98457.59
2022-11-27T05:37:18.006Z,98456.03
2022-11-27T05:42:23.223Z,98453.31
2022-11-27T05:47:26.980Z,98454.97
2022-11-27T05:52:31.797Z,98455.00
2022-11-27T05:57:35.377Z,98447.34
2022-11-27T06:02:39.154Z,98446.50
2022-11-27T06:07:44.171Z,98433.91
2022-11-27T06:12:47.901Z,98431.88
2022-11-27T06:17:51.774Z,98441.44
2022-11-27T06:22:57.403Z,98427.66
2022-11-27T06:28:01.003Z,98425.00
2022-11-27T06:33:04.543Z,98426.03
2022-11-27T06:38:09.636Z,98408.69
2022-11-27T06:43:13.160Z,98402.63
2022-11-27T06:48:16.742Z,98400.44
2022-11-27T06:53:21.662Z,98397.34
2022-11-27T06:58:30.851Z,98385.22
2022-11-27T07:03:34.861Z,98386.81
2022-11-27T07:08:40.048Z,98378.13
2022-11-27T07:13:43.748Z,98372.25
2022-11-27T07:18:49.620Z,98373.13
2022-11-27T07:23:56.523Z,98377.97
2022-11-27T07:29:05.439Z,98367.44
2022-11-27T07:34:15.043Z,98367.38
2022-11-27T07:39:39.438Z,98375.88
2022-11-27T07:44:46.185Z,98363.72
2022-11-27T07:49:51.677Z,98368.72
2022-11-27T07:54:57.697Z,98353.22
2022-11-27T08:00:02.122Z,98333.97
2022-11-27T08:05:12.703Z,98338.16
2022-11-27T08:10:21.373Z,98332.72
2022-11-27T08:15:25.673Z,98325.72
2022-11-27T08:20:32.693Z,98319.56
2022-11-27T08:25:39.457Z,98323.88
2022-11-27T08:30:43.875Z,98309.34
2022-11-27T08:35:49.871Z,98312.41
2022-11-27T08:41:00.347Z,98308.66
2022-11-27T08:46:08.423Z,98305.63
2022-11-27T08:51:14.713Z,98305.41
2022-11-27T08:56:21.849Z,98302.22
2022-11-27T09:01:27.800Z,98290.53
2022-11-27T09:06:33.652Z,98295.03
2022-11-27T09:11:39.230Z,98293.47
2022-11-27T09:16:43.732Z,98290.38
2022-11-27T09:21:47.284Z,98296.31
2022-11-27T09:26:52.814Z,98285.00
2022-11-27T09:31:56.604Z,98287.41
2022-11-27T09:37:00.320Z,98283.34
2022-11-27T09:42:09.730Z,98284.00
2022-11-27T09:47:19.541Z,98274.16
2022-11-27T09:52:28.160Z,98263.56
2022-11-27T09:57:38.892Z,98260.69
2022-11-27T10:02:45.270Z,98243.84
2022-11-27T10:08:09.943Z,98247.13
2022-11-27T10:13:26.360Z,98237.13
2022-11-27T10:18:36.571Z,98214.84
2022-11-27T10:23:49.089Z,98202.47
2022-11-27T10:29:02.030Z,98190.81
2022-11-27T10:34:18.877Z,98186.31
2022-11-27T10:39:33.753Z,98172.97
2022-11-27T10:44:43.428Z,98169.31
2022-11-27T10:49:48.974Z,98166.34
2022-11-27T10:54:59.149Z,98161.84
2022-11-27T11:00:11.059Z,98159.44
2022-11-27T11:05:37.669Z,98145.03
2022-11-27T11:10:51.359Z,98135.81
2022-11-27T11:15:59.385Z,98137.25
2022-11-27T11:21:09.507Z,98139.47
2022-11-27T11:26:26.084Z,98139.19
2022-11-27T11:31:35.857Z,98134.56
2022-11-27T11:36:39.701Z,98158.78
2022-11-27T11:41:47.255Z,98147.94
2022-11-27T11:46:55.627Z,98154.00
2022-11-27T11:52:21.940Z,98138.72
2022-11-27T11:57:52.441Z,98132.94
2022-11-27T12:03:16.066Z,98117.13
2022-11-27T12:08:43.526Z,98109.38
2022-11-27T12:14:04.843Z,98108.34
2022-11-27T12:19:36.183Z,98089.06
2022-11-27T12:24:53.441Z,98070.94
2022-11-27T12:30:10.867Z,98064.50
2022-11-27T12:35:31.952Z,98059.50
2022-11-27T12:40:51.386Z,98063.75
2022-11-27T12:46:03.524Z,98045.81
2022-11-27T12:51:27.410Z,98036.63
2022-11-27T12:56:38.276Z,98035.47
2022-11-27T13:01:46.800Z,98025.41
2022-11-27T13:07:00.003Z,98016.00
2022-11-27T13:12:06.048Z,98010.56
2022-11-27T13:17:17.160Z,98002.47
2022-11-27T13:22:35.225Z,97998.94
2022-11-27T13:27:40.200Z,98000.06
2022-11-27T13:32:50.361Z,97991.31
2022-11-27T13:38:06.062Z,97980.97
2022-11-27T13:43:23.931Z,97967.25
2022-11-27T13:48:33.958Z,97968.56
2022-11-27T13:53:41.970Z,97960.38
2022-11-27T13:58:45.895Z,97954.72
2022-11-27T14:03:50.344Z,97952.09
2022-11-27T14:09:03.255Z,97946.44
2022-11-27T14:14:21.101Z,97939.84
2022-11-27T14:19:33.644Z,97943.72
2022-11-27T14:24:44.978Z,97939.38
2022-11-27T14:29:52.251Z,97929.97
2022-11-27T14:34:55.924Z,97922.44
2022-11-27T14:40:02.393Z,97915.97
2022-11-27T14:45:15.361Z,97913.78
2022-11-27T14:50:24.346Z,97909.75
2022-11-27T14:55:34.857Z,97900.78
2022-11-27T15:00:41.995Z,97895.28
2022-11-27T15:05:54.027Z,97896.16
2022-11-27T15:11:01.385Z,97888.38
2022-11-27T15:16:15.285Z,97878.19
2022-11-27T15:21:25.603Z,97872.44
2022-11-27T15:26:35.213Z,97860.06
2022-11-27T15:31:48.866Z,97846.75
2022-11-27T15:36:59.889Z,97841.03
2022-11-27T15:42:11.375Z,97827.03
2022-11-27T15:47:24.337Z,97815.03
2022-11-27T15:52:30.176Z,97819.00
2022-11-27T15:57:35.842Z,97805.53
2022-11-27T16:02:39.744Z,97790.22
2022-11-27T16:07:54.713Z,97788.97
2022-11-27T16:13:00.343Z,97778.78
2022-11-27T16:18:08.343Z,97767.63
2022-11-27T16:23:13.202Z,97761.78
2022-11-27T16:28:18.361Z,97762.00
2022-11-27T16:33:26.504Z,97767.63
2022-11-27T16:38:30.873Z,97772.97
2022-11-27T16:43:39.133Z,97765.88
2022-11-27T16:48:45.287Z,97762.16
2022-11-27T16:53:50.751Z,97772.13
2022-11-27T16:59:02.782Z,97767.75
2022-11-27T17:04:11.874Z,97776.53
2022-11-27T17:09:16.544Z,97753.91
2022-11-27T17:14:22.544Z,97748.81
2022-11-27T17:19:27.231Z,97745.75
2022-11-27T17:24:31.271Z,97740.00
2022-11-27T17:29:38.098Z,97740.94
2022-11-27T17:34:42.528Z,97750.09
2022-11-27T17:39:46.116Z,97750.31
2022-11-27T17:44:51.619Z,97749.09
2022-11-27T17:49:57.012Z,97727.69
2022-11-27T17:55:00.678Z,97725.84
2022-11-27T18:00:09.016Z,97716.00
2022-11-27T18:05:24.195Z,97711.69
2022-11-27T18:10:32.236Z,97702.97
2022-11-27T18:15:37.728Z,97689.84
2022-11-27T18:20:41.437Z,97681.72
2022-11-27T18:25:48.947Z,97694.53
2022-11-27T18:30:54.484Z,97675.84
2022-11-27T18:36:01.652Z,97667.06
2022-11-27T18:41:13.545Z,97657.75
2022-11-27T18:46:21.187Z,97651.34
2022-11-27T18:51:26.628Z,97652.84
2022-11-27T18:56:38.059Z,97651.38
2022-11-27T19:01:43.820Z,97636.06
2022-11-27T19:06:47.620Z,97645.03
2022-11-27T19:11:51.192Z,97635.81
2022-11-27T19:16:58.553Z,97634.69
2022-11-27T19:22:02.237Z,97628.00
2022-11-27T19:27:05.983Z,97624.66
2022-11-27T19:32:12.208Z,97608.91
2022-11-27T19:37:33.938Z,97605.22
2022-11-27T19:42:39.063Z,97612.06
2022-11-27T19:47:44.104Z,97606.13
2022-11-27T19:52:48.314Z,97606.03
2022-11-27T19:57:52.218Z,97600.72
2022-11-27T20:02:58.994Z,97601.50
2022-11-27T20:08:02.924Z,97599.69
2022-11-27T20:13:07.514Z,97603.56
2022-11-27T20:18:13.002Z,97586.53
2022-11-27T20:23:18.614Z,97577.69
2022-11-27T20:28:25.165Z,97571.47
2022-11-27T20:33:36.235Z,97585.44
2022-11-27T20:38:41.780Z,97587.72
2022-11-27T20:43:46.299Z,97579.25
2022-11-27T20:48:54.295Z,97587.56
2022-11-27T20:53:59.450Z,97572.13
2022-11-27T20:59:04.910Z,97569.16
2022-11-27T21:04:19.459Z,97574.50
2022-11-27T21:09:24.349Z,97565.56
2022-11-27T21:14:28.793Z,97544.56
2022-11-27T21:19:33.795Z,97543.78
2022-11-27T21:24:37.659Z,97529.22
2022-11-27T21:29:41.693Z,97521.28
2022-11-27T21:34:47.196Z,97505.84
2022-11-27T21:39:51.620Z,97503.78
2022-11-27T21:44:55.543Z,97476.97
2022-11-27T21:50:01.300Z,97464.69
2022-11-27T21:55:12.011Z,97458.34
2022-11-27T22:00:17.059Z,97450.63
2022-11-27T22:05:22.460Z,97454.41
2022-11-27T22:10:27.888Z,97452.84
2022-11-27T22:15:31.881Z,97444.38
2022-11-27T22:20:37.146Z,97441.09
2022-11-27T22:25:40.913Z,97445.09
2022-11-27T22:30:47.417Z,97433.22
2022-11-27T22:35:52.435Z,97433.03
2022-11-27T22:41:01.829Z,97443.66
2022-11-27T22:46:06.440Z,97434.28
2022-11-27T22:51:12.215Z,97421.44
2022-11-27T22:56:15.795Z,97427.59
2022-11-27T23:01:22.682Z,97434.78
2022-11-27T23:06:28.148Z,97428.56
2022-11-27T23:11:31.989Z,97416.69
2022-11-27T23:16:35.867Z,97422.72
2022-11-27T23:21:41.084Z,97413.28
2022-11-27T23:26:45.867Z,97401.53
2022-11-27T23:31:49.749Z,97396.28
2022-11-27T23:36:54.819Z,97400.47
2022-11-27T23:41:58.667Z,97391.78
2022-11-27T23:47:02.437Z,97393.09
2022-11-27T23:52:07.580Z,97384.09
2022-11-27T23:57:11.500Z,97372.09
